createdAt,value
2022-07-30T00:00:51.934Z,19.26
2022-07-30T00:03:23.370Z,19.04
2022-07-30T00:05:56.537Z,18.87
2022-07-30T00:08:27.847Z,18.80
2022-07-30T00:10:59.196Z,18.77
2022-07-30T00:13:30.753Z,18.73
2022-07-30T00:16:02.245Z,18.68
2022-07-30T00:18:33.968Z,18.64
2022-07-30T00:21:06.021Z,18.60
2022-07-30T00:23:37.969Z,18.55
2022-07-30T00:26:09.262Z,18.54
2022-07-30T00:28:40.565Z,18.45
2022-07-30T00:31:11.926Z,18.40
2022-07-30T00:33:43.232Z,18.34
2022-07-30T00:36:14.548Z,18.30
2022-07-30T00:38:45.866Z,18.26
2022-07-30T00:41:17.179Z,18.26
2022-07-30T00:43:48.601Z,18.27
2022-07-30T00:46:20.367Z,18.27
2022-07-30T00:48:51.833Z,18.26
2022-07-30T00:51:23.193Z,18.23
2022-07-30T00:53:54.478Z,18.26
2022-07-30T00:56:25.795Z,18.27
2022-07-30T00:58:57.309Z,18.29
2022-07-30T01:01:28.686Z,18.29
2022-07-30T01:04:00.375Z,18.32
2022-07-30T01:06:31.743Z,18.32
2022-07-30T01:09:03.201Z,18.33
2022-07-30T01:11:40.249Z,18.32
2022-07-30T01:14:12.440Z,18.27
2022-07-30T01:16:43.894Z,18.26
2022-07-30T01:19:46.749Z,18.24
2022-07-30T01:22:31.044Z,18.24
2022-07-30T01:25:13.927Z,18.22
2022-07-30T01:28:06.152Z,18.27
2022-07-30T01:30:41.818Z,18.22
2022-07-30T01:33:16.569Z,18.28
2022-07-30T01:35:50.094Z,18.32
2022-07-30T01:38:23.192Z,18.36
2022-07-30T01:40:55.889Z,18.37
2022-07-30T01:43:28.759Z,18.36
2022-07-30T01:46:03.226Z,18.30
2022-07-30T01:48:37.042Z,18.30
2022-07-30T01:51:11.617Z,18.35
2022-07-30T01:53:44.281Z,18.30
2022-07-30T01:56:17.105Z,18.33
2022-07-30T01:58:49.955Z,18.29
2022-07-30T02:01:21.557Z,18.34
2022-07-30T02:03:53.543Z,18.27
2022-07-30T02:06:33.037Z,18.33
2022-07-30T02:09:10.926Z,18.34
2022-07-30T02:12:08.085Z,18.32
2022-07-30T02:14:47.710Z,18.37
2022-07-30T02:17:30.095Z,18.37
2022-07-30T02:20:09.259Z,18.39
2022-07-30T02:22:45.089Z,18.40
2022-07-30T02:25:20.382Z,18.41
2022-07-30T02:27:56.199Z,18.41
2022-07-30T02:30:31.688Z,18.41
2022-07-30T02:33:08.353Z,18.40
2022-07-30T02:35:41.058Z,18.38
2022-07-30T02:38:15.757Z,18.33
2022-07-30T02:40:49.487Z,18.41
2022-07-30T02:43:25.025Z,18.42
2022-07-30T02:45:58.650Z,18.36
2022-07-30T02:48:34.449Z,18.38
2022-07-30T02:51:08.467Z,18.32
2022-07-30T02:53:42.126Z,18.25
2022-07-30T02:56:15.971Z,18.21
2022-07-30T02:58:49.962Z,18.18
2022-07-30T03:01:23.366Z,18.14
2022-07-30T03:03:55.297Z,18.14
2022-07-30T03:06:27.567Z,18.07
2022-07-30T03:09:01.142Z,18.05
2022-07-30T03:11:34.304Z,18.11
2022-07-30T03:14:07.876Z,18.11
2022-07-30T03:16:42.107Z,18.11
2022-07-30T03:19:16.897Z,18.11
2022-07-30T03:21:48.947Z,18.04
2022-07-30T03:24:23.668Z,18.07
2022-07-30T03:26:56.689Z,18.09
2022-07-30T03:29:30.505Z,18.07
2022-07-30T03:32:03.977Z,18.11
2022-07-30T03:34:36.532Z,18.12
2022-07-30T03:37:09.111Z,18.12
2022-07-30T03:39:40.950Z,18.14
2022-07-30T03:42:12.387Z,18.15
2022-07-30T03:44:45.741Z,18.10
2022-07-30T03:47:17.963Z,18.08
2022-07-30T03:49:49.490Z,18.03
2022-07-30T03:52:21.078Z,18.05
2022-07-30T03:54:52.955Z,18.04
2022-07-30T03:57:25.711Z,18.07
2022-07-30T03:59:57.354Z,18.04
2022-07-30T04:02:28.673Z,18.06
2022-07-30T04:04:59.983Z,18.04
2022-07-30T04:07:31.274Z,18.01
2022-07-30T04:10:03.020Z,18.02
2022-07-30T04:12:34.362Z,18.05
2022-07-30T04:16:05.420Z,18.06
2022-07-30T04:18:03.074Z,18.07
2022-07-30T04:20:43.515Z,18.07
2022-07-30T04:23:15.634Z,18.08
2022-07-30T04:25:47.144Z,18.08
2022-07-30T04:28:19.749Z,18.07
2022-07-30T04:30:51.467Z,18.10
2022-07-30T04:33:22.898Z,18.11
2022-07-30T04:35:54.236Z,18.10
2022-07-30T04:38:25.617Z,18.14
2022-07-30T04:40:56.938Z,18.04
2022-07-30T04:43:28.363Z,18.13
2022-07-30T04:45:59.803Z,18.07
2022-07-30T04:48:31.203Z,17.98
2022-07-30T04:51:07.034Z,17.92
2022-07-30T04:53:39.047Z,17.79
2022-07-30T04:56:11.337Z,17.80
2022-07-30T04:58:44.513Z,17.79
2022-07-30T05:01:22.655Z,17.81
2022-07-30T05:03:54.972Z,17.81
2022-07-30T05:06:28.084Z,17.82
2022-07-30T05:08:59.875Z,17.81
2022-07-30T05:11:31.221Z,17.83
2022-07-30T05:14:02.679Z,17.81
2022-07-30T05:16:34.972Z,17.87
2022-07-30T05:19:07.922Z,17.89
2022-07-30T05:21:39.431Z,17.90
2022-07-30T05:24:10.979Z,17.87
2022-07-30T05:26:42.790Z,17.93
2022-07-30T05:29:18.029Z,17.94
2022-07-30T05:31:51.458Z,17.95
2022-07-30T05:34:23.394Z,17.98
2022-07-30T05:36:54.697Z,17.98
2022-07-30T05:39:25.997Z,18.05
2022-07-30T05:41:57.598Z,18.06
2022-07-30T05:44:28.889Z,18.10
2022-07-30T05:47:00.374Z,18.15
2022-07-30T05:49:32.137Z,18.19
2022-07-30T05:52:03.639Z,18.19
2022-07-30T05:54:37.671Z,18.20
2022-07-30T05:57:09.013Z,18.25
2022-07-30T05:59:40.396Z,18.31
2022-07-30T06:02:12.002Z,18.37
2022-07-30T06:04:46.137Z,18.41
2022-07-30T06:07:17.757Z,18.52
2022-07-30T06:09:49.138Z,18.57
2022-07-30T06:12:21.145Z,18.63
2022-07-30T06:14:52.574Z,18.68
2022-07-30T06:17:24.092Z,18.77
2022-07-30T06:19:55.563Z,18.91
2022-07-30T06:22:27.009Z,19.04
2022-07-30T06:24:58.321Z,19.13
2022-07-30T06:27:31.693Z,19.20
2022-07-30T06:30:06.803Z,19.17
2022-07-30T06:32:38.249Z,19.32
2022-07-30T06:35:09.690Z,19.43
2022-07-30T06:38:00.618Z,19.51
2022-07-30T06:40:34.073Z,19.59
2022-07-30T06:43:05.379Z,19.72
2022-07-30T06:45:36.740Z,19.84
2022-07-30T06:48:08.272Z,19.96
2022-07-30T06:50:41.388Z,20.03
2022-07-30T06:53:13.071Z,20.12
2022-07-30T06:55:44.394Z,20.28
2022-07-30T06:58:16.005Z,20.31
2022-07-30T07:00:56.818Z,20.45
2022-07-30T07:03:39.395Z,20.55
2022-07-30T07:06:11.310Z,20.61
2022-07-30T07:08:42.616Z,20.65
2022-07-30T07:11:13.976Z,20.72
2022-07-30T07:13:45.286Z,20.82
2022-07-30T07:16:16.697Z,20.89
2022-07-30T07:18:48.495Z,20.98
2022-07-30T07:21:20.551Z,21.04
2022-07-30T07:23:51.970Z,21.07
2022-07-30T07:26:23.985Z,21.09
2022-07-30T07:28:55.290Z,21.04
2022-07-30T07:32:06.920Z,21.01
2022-07-30T07:34:17.925Z,21.00
2022-07-30T07:36:49.268Z,21.03
2022-07-30T07:39:20.616Z,20.97
2022-07-30T07:41:51.954Z,20.95
2022-07-30T07:44:23.269Z,20.89
2022-07-30T07:46:54.597Z,20.85
2022-07-30T07:49:25.977Z,20.77
2022-07-30T07:51:57.335Z,20.71
2022-07-30T07:54:28.653Z,20.64
2022-07-30T07:57:01.474Z,20.54
2022-07-30T07:59:40.365Z,20.46
2022-07-30T08:02:12.139Z,20.47
2022-07-30T08:04:43.493Z,20.39
2022-07-30T08:07:14.901Z,20.40
2022-07-30T08:09:46.296Z,20.33
2022-07-30T08:12:17.853Z,20.28
2022-07-30T08:14:49.329Z,20.27
2022-07-30T08:17:20.779Z,20.24
2022-07-30T08:19:52.708Z,20.23
2022-07-30T08:22:24.024Z,20.22
2022-07-30T08:24:55.552Z,20.25
2022-07-30T08:27:26.917Z,20.36
2022-07-30T08:29:58.211Z,20.49
2022-07-30T08:32:29.909Z,20.56
2022-07-30T08:35:01.585Z,20.62
2022-07-30T08:37:32.982Z,20.68
2022-07-30T08:40:05.050Z,20.76
2022-07-30T08:42:36.462Z,20.79
2022-07-30T08:45:09.242Z,20.82
2022-07-30T08:47:44.719Z,20.95
2022-07-30T08:50:16.908Z,21.01
2022-07-30T08:52:49.196Z,21.11
2022-07-30T08:55:21.269Z,21.20
2022-07-30T08:57:52.888Z,21.23
2022-07-30T09:00:24.317Z,21.32
2022-07-30T09:02:57.183Z,21.47
2022-07-30T09:05:28.473Z,21.45
2022-07-30T09:07:59.778Z,21.63
2022-07-30T09:10:31.134Z,21.73
2022-07-30T09:13:02.533Z,21.88
2022-07-30T09:15:38.618Z,22.04
2022-07-30T09:18:11.561Z,22.18
2022-07-30T09:20:42.859Z,22.39
2022-07-30T09:23:14.234Z,22.52
2022-07-30T09:25:48.021Z,22.56
2022-07-30T09:28:29.464Z,22.67
2022-07-30T09:31:00.877Z,22.81
2022-07-30T09:33:44.142Z,22.96
2022-07-30T09:36:18.791Z,23.09
2022-07-30T09:38:52.644Z,23.15
2022-07-30T09:41:39.328Z,23.17
2022-07-30T09:44:23.687Z,23.29
2022-07-30T09:46:55.929Z,23.42
2022-07-30T09:49:29.100Z,23.55
2022-07-30T09:52:01.044Z,23.58
2022-07-30T09:54:51.871Z,23.62
2022-07-30T09:57:27.829Z,23.77
2022-07-30T10:00:15.972Z,23.89
2022-07-30T10:02:51.565Z,23.99
2022-07-30T10:05:24.313Z,24.04
2022-07-30T10:08:02.603Z,24.21
2022-07-30T10:10:35.991Z,24.41
2022-07-30T10:13:20.812Z,24.55
2022-07-30T10:15:52.486Z,24.67
2022-07-30T10:18:24.341Z,24.76
2022-07-30T10:20:55.955Z,24.85
2022-07-30T10:23:29.671Z,25.03
2022-07-30T10:26:04.754Z,25.14
2022-07-30T10:28:40.538Z,25.39
2022-07-30T10:31:49.243Z,25.68
2022-07-30T10:34:04.778Z,25.87
2022-07-30T10:36:36.616Z,26.03
2022-07-30T10:39:10.686Z,26.29
2022-07-30T10:41:53.879Z,26.63
2022-07-30T10:44:52.381Z,26.96
2022-07-30T10:47:29.816Z,27.19
2022-07-30T10:50:13.972Z,26.99
2022-07-30T10:52:55.882Z,26.78
2022-07-30T10:55:36.788Z,26.81
2022-07-30T10:58:12.420Z,26.95
2022-07-30T11:00:48.687Z,27.18
2022-07-30T11:03:40.026Z,27.35
2022-07-30T11:06:15.427Z,27.42
2022-07-30T11:08:48.478Z,27.53
2022-07-30T11:12:01.462Z,27.68
2022-07-30T11:14:14.261Z,27.68
2022-07-30T11:16:46.165Z,27.59
2022-07-30T11:19:56.662Z,27.51
2022-07-30T11:22:40.345Z,27.28
2022-07-30T11:25:50.455Z,27.09
2022-07-30T11:28:49.609Z,26.90
2022-07-30T11:31:55.701Z,26.84
2022-07-30T11:34:26.097Z,26.75
2022-07-30T11:37:21.933Z,26.84
2022-07-30T11:39:54.033Z,27.05
2022-07-30T11:42:28.299Z,27.26
2022-07-30T11:45:18.394Z,27.66
2022-07-30T11:47:55.490Z,27.75
2022-07-30T11:50:31.872Z,27.73
2022-07-30T11:53:06.507Z,27.84
2022-07-30T11:55:40.708Z,28.00
2022-07-30T11:58:34.587Z,28.19
2022-07-30T12:01:11.972Z,28.33
2022-07-30T12:03:45.373Z,28.23
2022-07-30T12:06:23.455Z,28.17
2022-07-30T12:08:58.511Z,28.23
2022-07-30T12:11:36.740Z,28.58
2022-07-30T12:14:08.133Z,28.92
2022-07-30T12:16:41.025Z,29.20
2022-07-30T12:19:13.925Z,29.52
2022-07-30T12:21:49.439Z,29.55
2022-07-30T12:24:26.995Z,29.42
2022-07-30T12:27:08.438Z,29.37
2022-07-30T12:29:40.901Z,29.58
2022-07-30T12:32:12.269Z,29.74
2022-07-30T12:34:56.105Z,29.78
2022-07-30T12:37:28.070Z,30.03
2022-07-30T12:40:16.526Z,30.17
2022-07-30T12:42:52.710Z,30.28
2022-07-30T12:45:51.805Z,30.27
2022-07-30T12:48:24.249Z,30.06
2022-07-30T12:51:09.156Z,29.69
2022-07-30T12:53:40.614Z,29.45
2022-07-30T12:56:16.882Z,29.36
2022-07-30T12:58:48.608Z,29.38
2022-07-30T13:01:39.856Z,29.35
2022-07-30T13:04:12.768Z,29.19
2022-07-30T13:06:44.585Z,29.12
2022-07-30T13:09:20.243Z,29.20
2022-07-30T13:11:51.553Z,29.09
2022-07-30T13:14:23.653Z,28.86
2022-07-30T13:16:58.660Z,28.70
2022-07-30T13:19:30.683Z,28.50
2022-07-30T13:22:02.020Z,28.43
2022-07-30T13:24:34.028Z,28.51
2022-07-30T13:27:05.646Z,28.42
2022-07-30T13:29:37.189Z,28.24
2022-07-30T13:32:08.522Z,28.11
2022-07-30T13:34:41.902Z,28.01
2022-07-30T13:37:13.210Z,27.97
2022-07-30T13:39:44.501Z,27.97
2022-07-30T13:42:15.809Z,28.00
2022-07-30T13:44:47.133Z,28.00
2022-07-30T13:47:18.523Z,28.10
2022-07-30T13:49:50.902Z,28.28
2022-07-30T13:52:22.201Z,28.32
2022-07-30T13:54:54.295Z,28.29
2022-07-30T13:57:25.674Z,28.38
2022-07-30T13:59:57.163Z,28.38
2022-07-30T14:02:28.562Z,28.32
2022-07-30T14:05:06.953Z,28.29
2022-07-30T14:07:39.846Z,28.31
2022-07-30T14:10:11.189Z,28.38
2022-07-30T14:12:42.660Z,28.35
2022-07-30T14:15:17.717Z,28.29
2022-07-30T14:17:56.530Z,28.28
2022-07-30T14:20:29.011Z,28.28
2022-07-30T14:23:00.637Z,28.41
2022-07-30T14:25:32.006Z,28.54
2022-07-30T14:28:03.705Z,28.55
2022-07-30T14:30:35.055Z,28.49
2022-07-30T14:33:06.507Z,28.48
2022-07-30T14:35:37.830Z,28.52
2022-07-30T14:38:09.134Z,28.44
2022-07-30T14:40:40.448Z,28.41
2022-07-30T14:43:14.162Z,28.37
2022-07-30T14:45:45.514Z,28.40
2022-07-30T14:48:17.417Z,28.42
2022-07-30T14:51:12.360Z,28.36
2022-07-30T14:53:40.317Z,28.37
2022-07-30T14:56:13.350Z,28.35
2022-07-30T14:58:45.299Z,28.29
2022-07-30T15:01:17.279Z,28.28
2022-07-30T15:03:48.662Z,28.35
2022-07-30T15:06:19.974Z,28.36
2022-07-30T15:08:51.328Z,28.32
2022-07-30T15:11:22.657Z,28.32
2022-07-30T15:13:54.253Z,28.28
2022-07-30T15:16:25.890Z,28.19
2022-07-30T15:18:57.291Z,28.15
2022-07-30T15:21:28.631Z,28.05
2022-07-30T15:23:59.946Z,27.90
2022-07-30T15:26:31.881Z,27.83
2022-07-30T15:29:03.393Z,27.77
2022-07-30T15:31:34.779Z,27.71
2022-07-30T15:34:10.653Z,27.73
2022-07-30T15:36:42.484Z,27.73
2022-07-30T15:39:15.463Z,27.77
2022-07-30T15:41:47.010Z,27.72
2022-07-30T15:44:19.490Z,27.72
2022-07-30T15:46:51.654Z,27.63
2022-07-30T15:49:23.066Z,27.53
2022-07-30T15:51:54.632Z,27.48
2022-07-30T15:54:28.688Z,27.46
2022-07-30T15:57:01.113Z,27.40
2022-07-30T15:59:33.037Z,27.26
2022-07-30T16:02:04.765Z,27.17
2022-07-30T16:04:36.532Z,27.04
2022-07-30T16:07:07.867Z,26.91
2022-07-30T16:09:41.477Z,26.79
2022-07-30T16:12:12.788Z,26.73
2022-07-30T16:14:44.164Z,26.56
2022-07-30T16:17:16.360Z,26.48
2022-07-30T16:19:47.678Z,26.36
2022-07-30T16:22:22.177Z,26.27
2022-07-30T16:24:55.664Z,26.19
2022-07-30T16:27:27.415Z,26.13
2022-07-30T16:29:58.734Z,26.08
2022-07-30T16:32:30.071Z,26.02
2022-07-30T16:35:01.423Z,25.98
2022-07-30T16:37:32.756Z,25.93
2022-07-30T16:40:04.659Z,25.89
2022-07-30T16:42:36.021Z,25.82
2022-07-30T16:45:07.946Z,25.81
2022-07-30T16:47:39.323Z,25.70
2022-07-30T16:50:10.675Z,25.66
2022-07-30T16:52:42.091Z,25.63
2022-07-30T16:55:13.405Z,25.55
2022-07-30T16:57:44.745Z,25.48
2022-07-30T17:00:18.082Z,25.41
2022-07-30T17:02:49.379Z,25.37
2022-07-30T17:05:20.682Z,25.31
2022-07-30T17:07:51.981Z,25.29
2022-07-30T17:10:25.459Z,25.24
2022-07-30T17:12:57.809Z,25.19
2022-07-30T17:15:31.978Z,25.15
2022-07-30T17:18:04.902Z,25.08
2022-07-30T17:20:36.768Z,25.03
2022-07-30T17:23:15.848Z,24.98
2022-07-30T17:25:47.163Z,24.93
2022-07-30T17:28:19.450Z,24.90
2022-07-30T17:30:55.676Z,24.83
2022-07-30T17:33:27.046Z,24.81
2022-07-30T17:35:58.443Z,24.76
2022-07-30T17:38:29.803Z,24.68
2022-07-30T17:41:01.363Z,24.67
2022-07-30T17:43:32.655Z,24.67
2022-07-30T17:46:04.077Z,24.65
2022-07-30T17:48:35.385Z,24.65
2022-07-30T17:51:06.699Z,24.64
2022-07-30T17:53:38.123Z,24.57
2022-07-30T17:56:26.417Z,24.52
2022-07-30T17:58:58.780Z,24.45
2022-07-30T18:01:30.525Z,24.37
2022-07-30T18:04:02.015Z,24.33
2022-07-30T18:06:33.455Z,24.32
2022-07-30T18:09:05.333Z,24.27
2022-07-30T18:11:36.730Z,24.24
2022-07-30T18:14:08.041Z,24.23
2022-07-30T18:16:39.378Z,24.13
2022-07-30T18:19:26.922Z,24.14
2022-07-30T18:22:02.856Z,24.10
2022-07-30T18:24:34.495Z,24.08
2022-07-30T18:27:12.269Z,24.01
2022-07-30T18:29:43.660Z,23.99
2022-07-30T18:32:14.966Z,23.94
2022-07-30T18:34:46.314Z,23.88
2022-07-30T18:37:17.924Z,23.85
2022-07-30T18:39:49.276Z,23.80
2022-07-30T18:42:20.831Z,23.73
2022-07-30T18:44:55.178Z,23.63
2022-07-30T18:47:26.483Z,23.54
2022-07-30T18:49:57.887Z,23.43
2022-07-30T18:52:29.306Z,23.40
2022-07-30T18:55:01.120Z,23.33
2022-07-30T18:57:32.437Z,23.24
2022-07-30T19:00:08.894Z,23.26
2022-07-30T19:02:40.674Z,23.23
2022-07-30T19:05:12.033Z,23.17
2022-07-30T19:07:55.457Z,23.10
2022-07-30T19:10:28.929Z,22.99
2022-07-30T19:13:00.492Z,22.89
2022-07-30T19:15:31.857Z,22.75
2022-07-30T19:18:03.385Z,22.65
2022-07-30T19:20:34.731Z,22.54
2022-07-30T19:23:07.700Z,22.45
2022-07-30T19:25:39.203Z,22.35
2022-07-30T19:28:15.312Z,22.33
2022-07-30T19:30:46.733Z,22.30
2022-07-30T19:33:18.239Z,22.29
2022-07-30T19:35:50.110Z,22.24
2022-07-30T19:38:23.956Z,22.20
2022-07-30T19:40:55.444Z,22.15
2022-07-30T19:43:27.319Z,22.08
2022-07-30T19:45:59.925Z,22.00
2022-07-30T19:48:32.478Z,21.93
2022-07-30T19:51:04.504Z,21.85
2022-07-30T19:53:35.870Z,21.80
2022-07-30T19:56:10.762Z,21.72
2022-07-30T19:58:42.745Z,21.66
2022-07-30T20:01:15.592Z,21.62
2022-07-30T20:03:47.001Z,21.59
2022-07-30T20:06:19.101Z,21.57
2022-07-30T20:08:52.487Z,21.54
2022-07-30T20:11:36.081Z,21.51
2022-07-30T20:14:08.043Z,21.46
2022-07-30T20:16:39.359Z,21.50
2022-07-30T20:19:11.294Z,21.50
2022-07-30T20:21:56.643Z,21.52
2022-07-30T20:24:28.955Z,21.53
2022-07-30T20:27:01.630Z,21.56
2022-07-30T20:29:53.029Z,21.53
2022-07-30T20:32:25.631Z,21.56
2022-07-30T20:34:57.162Z,21.55
2022-07-30T20:37:29.540Z,21.48
2022-07-30T20:40:00.827Z,21.52
2022-07-30T20:42:32.628Z,21.53
2022-07-30T20:45:05.891Z,21.49
2022-07-30T20:47:40.864Z,21.44
2022-07-30T20:50:14.476Z,21.45
2022-07-30T20:52:46.662Z,21.41
2022-07-30T20:55:22.088Z,21.31
2022-07-30T20:58:00.292Z,21.30
2022-07-30T21:00:37.689Z,21.30
2022-07-30T21:03:13.617Z,21.28
2022-07-30T21:05:46.553Z,21.24
2022-07-30T21:08:18.057Z,21.24
2022-07-30T21:10:49.457Z,21.21
2022-07-30T21:13:21.240Z,21.18
2022-07-30T21:16:01.977Z,21.14
2022-07-30T21:18:34.617Z,21.18
2022-07-30T21:21:05.940Z,21.14
2022-07-30T21:23:37.556Z,21.12
2022-07-30T21:26:10.513Z,21.07
2022-07-30T21:28:44.847Z,21.06
2022-07-30T21:31:16.211Z,21.02
2022-07-30T21:33:47.650Z,21.00
2022-07-30T21:36:24.764Z,20.95
2022-07-30T21:38:56.410Z,20.93
2022-07-30T21:41:39.909Z,20.84
2022-07-30T21:44:12.173Z,20.85
2022-07-30T21:46:44.461Z,20.84
2022-07-30T21:49:15.807Z,20.78
2022-07-30T21:51:47.205Z,20.75
2022-07-30T21:54:29.106Z,20.75
2022-07-30T21:57:03.010Z,20.72
2022-07-30T21:59:34.391Z,20.70
2022-07-30T22:02:06.563Z,20.67
2022-07-30T22:04:47.527Z,20.56
2022-07-30T22:07:22.122Z,20.60
2022-07-30T22:09:53.574Z,20.55
2022-07-30T22:12:28.892Z,20.51
2022-07-30T22:15:01.383Z,20.48
2022-07-30T22:17:37.417Z,20.40
2022-07-30T22:20:26.853Z,20.38
2022-07-30T22:23:01.060Z,20.35
2022-07-30T22:25:43.736Z,20.31
2022-07-30T22:28:16.696Z,20.28
2022-07-30T22:30:48.123Z,20.24
2022-07-30T22:33:19.978Z,20.18
2022-07-30T22:35:51.359Z,20.14
2022-07-30T22:38:22.672Z,20.05
2022-07-30T22:40:54.091Z,20.05
2022-07-30T22:43:27.018Z,20.03
2022-07-30T22:46:27.209Z,19.99
2022-07-30T22:48:59.122Z,19.96
2022-07-30T22:51:58.609Z,19.92
2022-07-30T22:54:22.340Z,19.84
2022-07-30T22:56:54.125Z,19.82
2022-07-30T22:59:57.543Z,19.83
2022-07-30T23:02:18.077Z,19.82
2022-07-30T23:04:49.505Z,19.81
2022-07-30T23:07:21.141Z,19.78
2022-07-30T23:09:54.689Z,19.76
2022-07-30T23:12:26.069Z,19.71
2022-07-30T23:14:57.381Z,19.64
2022-07-30T23:17:28.722Z,19.61
2022-07-30T23:20:00.148Z,19.54
2022-07-30T23:22:31.625Z,19.48
2022-07-30T23:25:05.042Z,19.45
2022-07-30T23:27:36.737Z,19.25
2022-07-30T23:30:10.366Z,19.27
2022-07-30T23:32:41.814Z,19.24
2022-07-30T23:35:13.189Z,19.21
2022-07-30T23:37:48.476Z,19.18
2022-07-30T23:40:20.574Z,19.07
2022-07-30T23:42:52.487Z,19.11
2022-07-30T23:45:23.931Z,19.10
2022-07-30T23:48:02.925Z,19.07
2022-07-30T23:50:35.580Z,18.98
2022-07-30T23:53:06.894Z,18.99
2022-07-30T23:55:38.213Z,18.95
2022-07-30T23:58:09.547Z,18.92
